createdAt,value
2022-12-27T00:00:33.161Z,5.51
2022-12-27T00:02:59.256Z,5.44
2022-12-27T00:05:25.340Z,5.56
2022-12-27T00:07:51.378Z,5.77
2022-12-27T00:10:17.486Z,5.52
2022-12-27T00:12:43.576Z,5.21
2022-12-27T00:15:09.776Z,5.43
2022-12-27T00:17:35.852Z,5.31
2022-12-27T00:20:10.343Z,5.47
2022-12-27T00:22:37.238Z,5.45
2022-12-27T00:25:03.573Z,5.36
2022-12-27T00:27:29.654Z,5.64
2022-12-27T00:29:55.675Z,5.47
2022-12-27T00:32:21.786Z,5.10
2022-12-27T00:34:47.824Z,5.52
2022-12-27T00:37:14.426Z,5.48
2022-12-27T00:39:40.549Z,4.14
2022-12-27T00:42:06.618Z,5.42
2022-12-27T00:44:32.671Z,3.80
2022-12-27T00:46:58.791Z,5.18
2022-12-27T00:49:24.952Z,5.25
2022-12-27T00:51:51.025Z,4.79
2022-12-27T00:54:17.161Z,5.24
2022-12-27T00:56:43.520Z,5.02
2022-12-27T00:59:11.078Z,5.23
2022-12-27T01:01:38.111Z,5.40
2022-12-27T01:04:05.045Z,5.34
2022-12-27T01:06:32.661Z,5.26
2022-12-27T01:08:59.819Z,5.05
2022-12-27T01:11:27.760Z,5.10
2022-12-27T01:13:56.088Z,5.16
2022-12-27T01:16:23.826Z,5.15
2022-12-27T01:18:50.003Z,3.17
2022-12-27T01:21:18.834Z,4.99
2022-12-27T01:23:45.195Z,1.24
2022-12-27T01:26:16.205Z,5.08
2022-12-27T01:28:42.651Z,4.97
2022-12-27T01:31:12.013Z,5.02
2022-12-27T01:33:38.678Z,5.05
2022-12-27T01:36:16.077Z,5.05
2022-12-27T01:38:42.938Z,5.10
2022-12-27T01:41:37.173Z,0.81
2022-12-27T01:44:34.363Z,4.85
2022-12-27T01:47:02.087Z,4.94
2022-12-27T01:49:28.212Z,5.13
2022-12-27T01:51:54.276Z,5.10
2022-12-27T01:54:20.367Z,5.13
2022-12-27T01:56:46.670Z,1.33
2022-12-27T01:59:13.796Z,0.11
2022-12-27T02:01:43.534Z,5.03
2022-12-27T02:04:12.699Z,5.16
2022-12-27T02:06:39.172Z,4.50
2022-12-27T02:09:05.177Z,5.18
2022-12-27T02:11:51.937Z,4.92
2022-12-27T02:14:44.827Z,4.87
2022-12-27T02:17:23.152Z,5.13
2022-12-27T02:19:59.852Z,5.09
2022-12-27T02:23:01.756Z,5.05
2022-12-27T02:25:49.459Z,4.92
2022-12-27T02:28:52.824Z,4.74
2022-12-27T02:31:24.405Z,2.75
2022-12-27T02:33:51.416Z,4.93
2022-12-27T02:36:22.400Z,4.91
2022-12-27T02:38:51.586Z,4.56
2022-12-27T02:41:37.332Z,4.06
2022-12-27T02:44:22.441Z,4.86
2022-12-27T02:47:07.860Z,4.84
2022-12-27T02:49:59.495Z,4.71
2022-12-27T02:53:09.015Z,2.82
2022-12-27T02:56:04.273Z,5.13
2022-12-27T02:58:48.866Z,4.94
2022-12-27T03:01:49.981Z,4.83
2022-12-27T03:04:53.212Z,4.63
2022-12-27T03:07:44.136Z,4.93
2022-12-27T03:10:55.105Z,4.84
2022-12-27T03:14:02.496Z,4.92
2022-12-27T03:16:32.822Z,4.85
2022-12-27T03:19:12.791Z,4.63
2022-12-27T03:22:05.033Z,4.87
2022-12-27T03:24:51.754Z,4.97
2022-12-27T03:27:27.709Z,5.00
2022-12-27T03:30:14.626Z,2.89
2022-12-27T03:33:08.958Z,3.84
2022-12-27T03:36:17.580Z,4.92
2022-12-27T03:38:50.239Z,4.97
2022-12-27T03:41:47.560Z,4.79
2022-12-27T03:44:25.966Z,5.00
2022-12-27T03:46:57.701Z,4.65
2022-12-27T03:49:26.483Z,4.73
2022-12-27T03:52:08.050Z,4.80
2022-12-27T03:54:37.236Z,4.61
2022-12-27T03:57:05.822Z,5.14
2022-12-27T03:59:32.029Z,4.99
2022-12-27T04:01:58.754Z,5.01
2022-12-27T04:04:24.875Z,5.08
2022-12-27T04:06:51.006Z,5.12
2022-12-27T04:09:36.076Z,4.71
2022-12-27T04:12:21.017Z,4.95
2022-12-27T04:15:05.535Z,4.98
2022-12-27T04:17:50.367Z,4.48
2022-12-27T04:20:35.104Z,5.12
2022-12-27T04:23:19.854Z,4.89
2022-12-27T04:26:04.269Z,4.98
2022-12-27T04:28:49.087Z,3.26
2022-12-27T04:31:33.663Z,4.92
2022-12-27T04:34:18.650Z,5.07
2022-12-27T04:36:44.871Z,4.37
2022-12-27T04:39:11.253Z,4.53
2022-12-27T04:41:55.546Z,4.95
2022-12-27T04:44:39.870Z,4.86
2022-12-27T04:47:29.802Z,4.38
2022-12-27T04:50:14.550Z,4.86
2022-12-27T04:53:00.908Z,4.92
2022-12-27T04:55:28.725Z,4.87
2022-12-27T04:57:55.951Z,4.89
2022-12-27T05:00:43.235Z,0.94
2022-12-27T05:03:15.895Z,4.89
2022-12-27T05:05:43.082Z,4.53
2022-12-27T05:08:28.215Z,4.59
2022-12-27T05:11:12.806Z,4.80
2022-12-27T05:13:57.218Z,4.74
2022-12-27T05:16:23.366Z,4.86
2022-12-27T05:18:49.450Z,4.13
2022-12-27T05:21:15.667Z,4.94
2022-12-27T05:24:05.228Z,4.85
2022-12-27T05:26:32.639Z,4.96
2022-12-27T05:28:58.866Z,4.91
2022-12-27T05:31:26.631Z,3.99
2022-12-27T05:33:53.132Z,4.82
2022-12-27T05:36:20.015Z,4.94
2022-12-27T05:38:46.317Z,4.83
2022-12-27T05:41:12.967Z,3.88
2022-12-27T05:43:39.360Z,4.39
2022-12-27T05:46:07.565Z,4.21
2022-12-27T05:48:34.166Z,4.67
2022-12-27T05:51:10.214Z,4.75
2022-12-27T05:53:36.300Z,4.47
2022-12-27T05:56:02.605Z,4.49
2022-12-27T05:58:29.332Z,4.47
2022-12-27T06:00:55.491Z,4.45
2022-12-27T06:03:21.871Z,3.86
2022-12-27T06:05:48.071Z,3.72
2022-12-27T06:08:14.147Z,4.11
2022-12-27T06:10:40.251Z,4.28
2022-12-27T06:13:06.451Z,4.10
2022-12-27T06:15:32.889Z,4.32
2022-12-27T06:18:00.288Z,3.89
2022-12-27T06:20:26.582Z,4.17
2022-12-27T06:22:52.626Z,4.17
2022-12-27T06:25:18.673Z,4.19
2022-12-27T06:27:44.901Z,4.23
2022-12-27T06:30:11.784Z,4.24
2022-12-27T06:32:38.120Z,4.08
2022-12-27T06:35:04.690Z,4.04
2022-12-27T06:37:31.068Z,3.88
2022-12-27T06:39:57.249Z,4.06
2022-12-27T06:42:23.322Z,4.20
2022-12-27T06:44:49.397Z,4.14
2022-12-27T06:47:15.446Z,4.26
2022-12-27T06:49:41.493Z,4.06
2022-12-27T06:52:07.534Z,4.18
2022-12-27T06:54:33.569Z,4.21
2022-12-27T06:56:59.682Z,4.34
2022-12-27T06:59:26.038Z,4.24
2022-12-27T07:01:52.346Z,4.29
2022-12-27T07:04:18.609Z,4.28
2022-12-27T07:06:44.681Z,4.54
2022-12-27T07:09:10.791Z,4.61
2022-12-27T07:11:37.113Z,4.63
2022-12-27T07:14:03.699Z,4.52
2022-12-27T07:16:29.947Z,4.64
2022-12-27T07:18:57.712Z,4.63
2022-12-27T07:21:26.386Z,4.45
2022-12-27T07:23:52.577Z,4.59
2022-12-27T07:26:20.871Z,4.56
2022-12-27T07:28:47.199Z,4.51
2022-12-27T07:31:16.699Z,4.09
2022-12-27T07:33:43.811Z,4.62
2022-12-27T07:36:14.782Z,4.60
2022-12-27T07:38:40.924Z,4.65
2022-12-27T07:41:07.366Z,4.80
2022-12-27T07:43:34.756Z,4.37
2022-12-27T07:46:05.632Z,4.61
2022-12-27T07:48:32.021Z,4.73
2022-12-27T07:50:58.347Z,4.71
2022-12-27T07:53:24.423Z,4.16
2022-12-27T07:55:50.548Z,4.73
2022-12-27T07:58:17.632Z,4.68
2022-12-27T08:00:45.766Z,4.81
2022-12-27T08:03:11.867Z,4.44
2022-12-27T08:05:37.933Z,4.76
2022-12-27T08:08:04.281Z,4.52
2022-12-27T08:10:30.384Z,5.04
2022-12-27T08:12:56.733Z,4.95
2022-12-27T08:15:23.952Z,5.03
2022-12-27T08:17:50.079Z,5.13
2022-12-27T08:20:16.161Z,5.00
2022-12-27T08:22:42.277Z,5.11
2022-12-27T08:25:08.785Z,5.21
2022-12-27T08:27:34.977Z,4.90
2022-12-27T08:30:01.000Z,5.13
2022-12-27T08:32:27.074Z,5.18
2022-12-27T08:34:53.114Z,5.10
2022-12-27T08:37:19.304Z,5.12
2022-12-27T08:39:45.379Z,5.32
2022-12-27T08:42:12.226Z,5.12
2022-12-27T08:44:38.321Z,5.29
2022-12-27T08:47:05.000Z,5.28
2022-12-27T08:49:31.281Z,5.34
2022-12-27T08:51:57.338Z,5.17
2022-12-27T08:54:24.511Z,5.30
2022-12-27T08:56:50.745Z,5.18
2022-12-27T08:59:17.017Z,5.30
2022-12-27T09:01:43.405Z,5.36
2022-12-27T09:04:09.957Z,5.35
2022-12-27T09:06:38.766Z,5.46
2022-12-27T09:09:05.122Z,5.27
2022-12-27T09:11:32.885Z,5.49
2022-12-27T09:14:01.228Z,5.37
2022-12-27T09:16:28.723Z,5.51
2022-12-27T09:18:56.814Z,5.53
2022-12-27T09:21:25.095Z,5.53
2022-12-27T09:23:51.480Z,5.04
2022-12-27T09:26:19.834Z,5.42
2022-12-27T09:28:47.034Z,5.36
2022-12-27T09:31:13.946Z,5.42
2022-12-27T09:33:40.179Z,5.71
2022-12-27T09:36:11.565Z,5.69
2022-12-27T09:38:38.427Z,5.80
2022-12-27T09:41:19.247Z,5.40
2022-12-27T09:44:16.742Z,5.75
2022-12-27T09:46:47.936Z,5.77
2022-12-27T09:49:17.175Z,5.90
2022-12-27T09:51:50.979Z,5.97
2022-12-27T09:54:26.458Z,5.55
2022-12-27T09:57:18.945Z,5.93
2022-12-27T09:59:43.382Z,5.78
2022-12-27T10:02:24.908Z,5.33
2022-12-27T10:05:19.185Z,6.14
2022-12-27T10:07:38.597Z,6.08
2022-12-27T10:10:19.343Z,5.33
2022-12-27T10:13:13.039Z,6.17
2022-12-27T10:15:51.513Z,6.15
2022-12-27T10:18:24.607Z,6.10
2022-12-27T10:21:09.170Z,6.05
2022-12-27T10:23:37.664Z,6.07
2022-12-27T10:26:06.619Z,6.18
2022-12-27T10:28:35.940Z,6.26
2022-12-27T10:31:02.978Z,6.31
2022-12-27T10:33:32.194Z,6.04
2022-12-27T10:35:58.456Z,5.94
2022-12-27T10:38:31.063Z,6.46
2022-12-27T10:41:05.474Z,6.50
2022-12-27T10:43:42.335Z,6.66
2022-12-27T10:46:14.407Z,6.70
2022-12-27T10:49:18.868Z,7.28
2022-12-27T10:51:34.227Z,6.92
2022-12-27T10:54:05.068Z,6.84
2022-12-27T10:56:34.205Z,6.87
2022-12-27T10:59:21.433Z,6.88
2022-12-27T11:01:52.145Z,6.85
2022-12-27T11:04:23.973Z,6.80
2022-12-27T11:07:09.764Z,6.70
2022-12-27T11:09:36.533Z,6.71
2022-12-27T11:12:22.966Z,7.48
2022-12-27T11:15:04.333Z,7.33
2022-12-27T11:17:42.626Z,7.29
2022-12-27T11:20:22.012Z,7.15
2022-12-27T11:22:58.282Z,6.88
2022-12-27T11:25:26.148Z,6.90
2022-12-27T11:28:02.923Z,6.40
2022-12-27T11:30:37.987Z,7.03
2022-12-27T11:33:07.406Z,7.18
2022-12-27T11:35:36.637Z,7.18
2022-12-27T11:38:02.760Z,6.89
2022-12-27T11:40:33.825Z,6.57
2022-12-27T11:43:09.028Z,6.93
2022-12-27T11:45:40.081Z,6.70
2022-12-27T11:48:25.574Z,6.61
2022-12-27T11:51:29.741Z,6.67
2022-12-27T11:54:26.206Z,6.48
2022-12-27T11:56:58.491Z,6.64
2022-12-27T11:59:33.368Z,6.78
2022-12-27T12:02:05.887Z,6.79
2022-12-27T12:04:31.959Z,6.95
2022-12-27T12:07:11.197Z,7.15
2022-12-27T12:10:01.358Z,7.00
2022-12-27T12:12:36.378Z,6.85
2022-12-27T12:15:33.383Z,6.46
2022-12-27T12:18:21.237Z,6.94
2022-12-27T12:21:12.216Z,6.87
2022-12-27T12:24:29.855Z,6.69
2022-12-27T12:27:21.603Z,6.97
2022-12-27T12:30:12.823Z,7.00
2022-12-27T12:32:59.002Z,6.87
2022-12-27T12:35:46.035Z,6.98
2022-12-27T12:38:20.764Z,7.27
2022-12-27T12:41:09.082Z,7.40
2022-12-27T12:43:44.940Z,7.28
2022-12-27T12:46:35.598Z,7.24
2022-12-27T12:49:28.031Z,7.21
2022-12-27T12:51:54.044Z,7.12
2022-12-27T12:54:38.037Z,7.01
2022-12-27T12:57:35.225Z,7.02
2022-12-27T13:00:33.246Z,7.11
2022-12-27T13:03:24.357Z,7.21
2022-12-27T13:06:17.168Z,7.12
2022-12-27T13:09:09.390Z,6.88
2022-12-27T13:11:52.042Z,7.26
2022-12-27T13:14:33.228Z,7.21
2022-12-27T13:17:03.474Z,6.68
2022-12-27T13:19:47.637Z,7.12
2022-12-27T13:22:21.074Z,7.20
2022-12-27T13:25:30.557Z,7.37
2022-12-27T13:28:15.288Z,7.23
2022-12-27T13:30:57.729Z,7.30
2022-12-27T13:33:48.007Z,7.20
2022-12-27T13:37:00.484Z,7.01
2022-12-27T13:39:57.540Z,7.22
2022-12-27T13:42:43.892Z,7.21
2022-12-27T13:45:18.975Z,7.15
2022-12-27T13:48:06.422Z,7.20
2022-12-27T13:50:53.396Z,7.18
2022-12-27T13:53:50.343Z,7.18
2022-12-27T13:59:18.853Z,7.19
2022-12-27T14:01:52.639Z,7.38
2022-12-27T14:04:37.872Z,7.35
2022-12-27T14:07:06.856Z,7.17
2022-12-27T14:09:51.132Z,7.36
2022-12-27T14:12:48.394Z,7.17
2022-12-27T14:15:21.442Z,7.18
2022-12-27T14:17:57.730Z,7.12
2022-12-27T14:20:46.329Z,6.43
2022-12-27T14:23:30.561Z,7.29
2022-12-27T14:26:18.647Z,7.17
2022-12-27T14:29:32.729Z,7.13
2022-12-27T14:32:04.900Z,7.22
2022-12-27T14:34:53.290Z,7.21
2022-12-27T14:37:24.750Z,7.19
2022-12-27T14:39:56.914Z,7.09
2022-12-27T14:42:49.222Z,7.22
2022-12-27T14:45:45.467Z,7.17
2022-12-27T14:48:30.301Z,6.99
2022-12-27T14:51:49.905Z,7.18
2022-12-27T14:54:10.252Z,7.02
2022-12-27T14:56:45.040Z,7.10
2022-12-27T14:59:23.114Z,7.02
2022-12-27T15:02:23.211Z,6.89
2022-12-27T15:05:04.748Z,6.90
2022-12-27T15:07:46.134Z,7.00
2022-12-27T15:10:31.772Z,7.03
2022-12-27T15:13:15.212Z,6.64
2022-12-27T15:15:59.564Z,7.15
2022-12-27T15:18:35.516Z,6.99
2022-12-27T15:21:22.095Z,6.92
2022-12-27T15:23:53.482Z,5.57
2022-12-27T15:26:31.800Z,6.97
2022-12-27T15:29:16.996Z,7.02
2022-12-27T15:32:03.108Z,7.03
2022-12-27T15:34:36.240Z,7.03
2022-12-27T15:37:02.570Z,6.85
2022-12-27T15:39:37.534Z,7.06
2022-12-27T15:42:08.448Z,7.07
2022-12-27T15:44:45.957Z,6.92
2022-12-27T15:47:24.568Z,6.80
2022-12-27T15:50:29.048Z,6.78
2022-12-27T15:53:04.020Z,6.83
2022-12-27T15:56:04.139Z,6.93
2022-12-27T15:58:30.568Z,6.84
2022-12-27T16:01:17.892Z,6.80
2022-12-27T16:03:50.521Z,6.69
2022-12-27T16:06:35.059Z,6.77
2022-12-27T16:09:25.551Z,6.74
2022-12-27T16:11:57.537Z,6.93
2022-12-27T16:14:31.150Z,6.82
2022-12-27T16:17:06.337Z,6.69
2022-12-27T16:19:40.997Z,6.83
2022-12-27T16:22:25.776Z,6.61
2022-12-27T16:24:51.852Z,5.10
2022-12-27T16:27:27.924Z,5.45
2022-12-27T16:29:54.992Z,6.33
2022-12-27T16:32:23.791Z,6.54
2022-12-27T16:34:54.376Z,6.61
2022-12-27T16:37:44.730Z,6.15
2022-12-27T16:40:41.307Z,6.50
2022-12-27T16:43:07.308Z,6.41
2022-12-27T16:45:39.383Z,6.53
2022-12-27T16:48:42.293Z,6.08
2022-12-27T16:51:08.568Z,6.42
2022-12-27T16:53:56.303Z,6.27
2022-12-27T16:56:27.291Z,6.46
2022-12-27T16:58:53.388Z,6.34
2022-12-27T17:01:25.820Z,6.39
2022-12-27T17:03:53.440Z,6.44
2022-12-27T17:06:35.709Z,6.33
2022-12-27T17:09:07.814Z,6.32
2022-12-27T17:11:49.239Z,6.32
2022-12-27T17:14:35.677Z,6.32
2022-12-27T17:17:22.548Z,6.37
2022-12-27T17:19:56.359Z,6.38
2022-12-27T17:22:27.311Z,6.18
2022-12-27T17:24:59.741Z,6.30
2022-12-27T17:27:50.829Z,6.15
2022-12-27T17:30:21.726Z,6.12
2022-12-27T17:32:50.503Z,6.30
2022-12-27T17:35:28.840Z,6.22
2022-12-27T17:38:12.729Z,6.13
2022-12-27T17:41:03.937Z,6.22
2022-12-27T17:44:04.907Z,6.15
2022-12-27T17:46:41.464Z,5.11
2022-12-27T17:49:08.969Z,6.23
2022-12-27T17:51:39.744Z,6.21
2022-12-27T17:54:42.495Z,6.28
2022-12-27T17:57:29.973Z,6.14
2022-12-27T17:59:56.371Z,5.93
2022-12-27T18:02:31.049Z,5.75
2022-12-27T18:05:00.191Z,6.03
2022-12-27T18:07:30.318Z,6.02
2022-12-27T18:10:03.270Z,6.15
2022-12-27T18:12:33.868Z,5.86
2022-12-27T18:15:02.900Z,5.61
2022-12-27T18:17:35.894Z,6.10
2022-12-27T18:20:25.388Z,6.12
2022-12-27T18:22:52.882Z,6.12
2022-12-27T18:25:36.785Z,6.08
2022-12-27T18:28:05.846Z,6.06
2022-12-27T18:30:37.350Z,5.98
2022-12-27T18:33:05.982Z,5.75
2022-12-27T18:35:32.611Z,6.05
2022-12-27T18:37:58.857Z,5.96
2022-12-27T18:40:25.599Z,5.62
2022-12-27T18:42:52.792Z,5.77
2022-12-27T18:45:22.133Z,5.98
2022-12-27T18:47:50.377Z,5.88
2022-12-27T18:50:19.340Z,4.20
2022-12-27T18:52:51.096Z,5.76
2022-12-27T18:55:26.737Z,5.93
2022-12-27T18:58:20.447Z,5.83
2022-12-27T19:00:52.740Z,5.55
2022-12-27T19:03:19.946Z,5.76
2022-12-27T19:05:56.161Z,5.86
2022-12-27T19:08:24.713Z,5.93
2022-12-27T19:10:51.189Z,6.01
2022-12-27T19:13:26.583Z,6.00
2022-12-27T19:15:53.597Z,5.93
2022-12-27T19:18:23.597Z,5.97
2022-12-27T19:20:53.408Z,5.94
2022-12-27T19:23:27.637Z,5.98
2022-12-27T19:25:59.007Z,5.96
2022-12-27T19:28:27.043Z,5.61
2022-12-27T19:31:19.005Z,5.98
2022-12-27T19:33:49.083Z,6.02
2022-12-27T19:36:15.521Z,5.55
2022-12-27T19:38:47.609Z,5.86
2022-12-27T19:41:14.341Z,5.88
2022-12-27T19:43:45.297Z,5.66
2022-12-27T19:46:12.712Z,5.83
2022-12-27T19:48:39.216Z,5.47
2022-12-27T19:51:06.450Z,5.50
2022-12-27T19:53:40.793Z,5.77
2022-12-27T19:56:08.400Z,5.44
2022-12-27T19:58:34.662Z,5.48
2022-12-27T20:01:00.849Z,5.52
2022-12-27T20:03:27.107Z,5.69
2022-12-27T20:06:12.626Z,5.47
2022-12-27T20:08:43.763Z,5.73
2022-12-27T20:11:15.321Z,6.00
2022-12-27T20:13:41.455Z,5.99
2022-12-27T20:16:11.304Z,5.81
2022-12-27T20:18:38.662Z,5.83
2022-12-27T20:21:05.639Z,5.18
2022-12-27T20:23:31.977Z,5.67
2022-12-27T20:25:58.088Z,4.98
2022-12-27T20:28:24.129Z,5.56
2022-12-27T20:30:50.191Z,5.71
2022-12-27T20:33:16.780Z,5.70
2022-12-27T20:35:43.049Z,5.59
2022-12-27T20:38:10.372Z,5.12
2022-12-27T20:40:36.911Z,5.55
2022-12-27T20:43:03.018Z,5.19
2022-12-27T20:45:29.114Z,5.59
2022-12-27T20:47:55.260Z,5.63
2022-12-27T20:50:21.669Z,5.40
2022-12-27T20:52:47.801Z,5.53
2022-12-27T20:55:13.838Z,5.64
2022-12-27T20:57:41.746Z,4.85
2022-12-27T21:00:08.959Z,4.31
2022-12-27T21:02:35.362Z,5.22
2022-12-27T21:05:01.605Z,5.39
2022-12-27T21:07:27.705Z,5.40
2022-12-27T21:09:53.762Z,5.55
2022-12-27T21:12:19.824Z,5.56
2022-12-27T21:14:46.585Z,5.51
2022-12-27T21:17:12.926Z,5.11
2022-12-27T21:19:38.987Z,5.07
2022-12-27T21:22:05.026Z,5.41
2022-12-27T21:24:32.385Z,5.32
2022-12-27T21:26:58.581Z,5.34
2022-12-27T21:29:24.909Z,5.09
2022-12-27T21:31:52.013Z,5.23
2022-12-27T21:34:18.211Z,5.05
2022-12-27T21:36:44.460Z,3.47
2022-12-27T21:39:10.746Z,5.20
2022-12-27T21:41:39.311Z,4.95
2022-12-27T21:44:05.943Z,5.33
2022-12-27T21:46:37.805Z,5.05
2022-12-27T21:49:08.967Z,4.99
2022-12-27T21:51:36.192Z,5.19
2022-12-27T21:54:03.136Z,4.17
2022-12-27T21:56:29.537Z,5.04
2022-12-27T21:58:57.529Z,5.36
2022-12-27T22:01:30.105Z,5.14
2022-12-27T22:03:57.199Z,5.21
2022-12-27T22:06:28.621Z,4.96
2022-12-27T22:09:00.012Z,5.18
2022-12-27T22:11:27.370Z,5.32
2022-12-27T22:13:53.640Z,5.11
2022-12-27T22:16:31.188Z,4.96
2022-12-27T22:18:57.647Z,5.02
2022-12-27T22:21:29.045Z,4.99
2022-12-27T22:23:56.763Z,3.75
2022-12-27T22:26:28.623Z,4.94
2022-12-27T22:28:55.280Z,4.56
2022-12-27T22:31:26.415Z,4.71
2022-12-27T22:33:52.527Z,4.96
2022-12-27T22:36:21.303Z,4.66
2022-12-27T22:38:49.993Z,4.83
2022-12-27T22:41:17.255Z,4.64
2022-12-27T22:43:50.730Z,4.73
2022-12-27T22:46:17.402Z,4.70
2022-12-27T22:48:48.648Z,4.80
2022-12-27T22:51:16.784Z,4.55
2022-12-27T22:53:42.858Z,4.70
2022-12-27T22:56:17.196Z,4.65
2022-12-27T22:58:43.974Z,4.70
2022-12-27T23:01:29.748Z,4.62
2022-12-27T23:03:56.991Z,4.67
2022-12-27T23:06:23.831Z,4.52
2022-12-27T23:08:50.089Z,4.71
2022-12-27T23:11:30.708Z,4.68
2022-12-27T23:14:09.706Z,3.04
2022-12-27T23:16:46.668Z,4.74
2022-12-27T23:19:15.018Z,4.49
2022-12-27T23:21:41.256Z,4.52
2022-12-27T23:24:08.163Z,4.56
2022-12-27T23:26:34.259Z,4.43
2022-12-27T23:29:00.347Z,4.51
2022-12-27T23:31:27.367Z,4.17
2022-12-27T23:33:53.922Z,4.72
2022-12-27T23:36:20.711Z,4.64
2022-12-27T23:38:46.949Z,4.63
2022-12-27T23:41:18.353Z,4.73
2022-12-27T23:43:53.764Z,4.77
2022-12-27T23:46:33.981Z,4.75
2022-12-27T23:49:02.281Z,3.33
2022-12-27T23:51:29.573Z,4.67
2022-12-27T23:53:56.043Z,4.63
2022-12-27T23:56:33.103Z,4.76
2022-12-27T23:59:01.060Z,4.49
